Time,TemperatureF,DewpointF,PressureIn,WindDirection,WindDirectionDegrees,WindSpeedMPH,WindSpeedGustMPH,Humidity,HourlyPrecipIn,Conditions,Clouds,dailyrainin,SoftwareType,DateUTC
2013-05-21 00:08:00,39.6,31.0,30.24,SSW,207,0.0,0.0,70,0.00,,,0.00,weatherlink.com 1.10,2013-05-21 06:08:00,
2013-05-21 00:23:00,38.7,29.0,30.24,SSW,207,0.0,0.0,69,0.00,,,0.00,weatherlink.com 1.10,2013-05-21 06:23:00,
2013-05-21 00:39:00,37.7,30.0,30.23,SW,227,4.0,7.0,75,0.00,,,0.00,weatherlink.com 1.10,2013-05-21 06:39:00,
2013-05-21 00:54:00,38.2,31.0,30.23,SW,217,4.0,7.0,76,0.00,,,0.00,weatherlink.com 1.10,2013-05-21 06:54:00,
2013-05-21 01:09:00,38.9,32.0,30.23,SW,229,4.0,6.0,75,0.00,,,0.00,weatherlink.com 1.10,2013-05-21 07:09:00,
2013-05-21 01:24:00,39.2,32.0,30.23,SW,230,4.0,5.0,74,0.00,,,0.00,weatherlink.com 1.10,2013-05-21 07:24:00,
2013-05-21 01:39:00,38.9,31.0,30.23,SW,220,6.0,7.0,74,0.00,,,0.00,weatherlink.com 1.10,2013-05-21 07:39:00,
2013-05-21 01:54:00,38.8,32.0,30.23,SW,225,3.0,6.0,75,0.00,,,0.00,weatherlink.com 1.10,2013-05-21 07:54:00,
2013-05-21 02:09:00,38.7,32.0,30.22,SSW,213,5.0,6.0,76,0.00,,,0.00,weatherlink.com 1.10,2013-05-21 08:09:00,
2013-05-21 02:24:00,38.6,32.0,30.22,SW,217,5.0,6.0,76,0.00,,,0.00,weatherlink.com 1.10,2013-05-21 08:24:00,
2013-05-21 02:39:00,38.3,31.0,30.21,SW,219,5.0,6.0,76,0.00,,,0.00,weatherlink.com 1.10,2013-05-21 08:39:00,
2013-05-21 02:54:00,37.9,31.0,30.21,SSW,213,2.0,4.0,76,0.00,,,0.00,weatherlink.com 1.10,2013-05-21 08:54:00,
2013-05-21 03:09:00,37.4,30.0,30.21,SW,219,0.0,4.0,76,0.00,,,0.00,weatherlink.com 1.10,2013-05-21 09:09:00,
2013-05-21 03:24:00,36.6,30.0,30.22,SW,219,0.0,0.0,76,0.00,,,0.00,weatherlink.com 1.10,2013-05-21 09:24:00,
2013-05-21 03:39:00,35.9,30.0,30.22,SW,219,0.0,0.0,78,0.00,,,0.00,weatherlink.com 1.10,2013-05-21 09:39:00,
2013-05-21 03:54:00,35.3,29.0,30.23,SW,221,3.0,4.0,78,0.00,,,0.00,weatherlink.com 1.10,2013-05-21 09:54:00,
2013-05-21 04:09:00,34.6,29.0,30.23,SW,222,2.0,4.0,80,0.00,,,0.00,weatherlink.com 1.10,2013-05-21 10:09:00,
2013-05-21 04:24:00,34.0,29.0,30.23,SW,225,3.0,4.0,81,0.00,,,0.00,weatherlink.com 1.10,2013-05-21 10:24:00,
2013-05-21 04:39:00,33.5,29.0,30.22,SW,227,3.0,4.0,82,0.00,,,0.00,weatherlink.com 1.10,2013-05-21 10:39:00,
2013-05-21 04:54:00,33.1,28.0,30.23,SW,227,4.0,4.0,82,0.00,,,0.00,weatherlink.com 1.10,2013-05-21 10:54:00,
2013-05-21 05:09:00,33.0,29.0,30.22,SW,216,4.0,7.0,86,0.00,,,0.00,weatherlink.com 1.10,2013-05-21 11:09:00,
2013-05-21 05:24:00,34.0,30.0,30.22,SW,221,5.0,7.0,86,0.00,,,0.00,weatherlink.com 1.10,2013-05-21 11:24:00,
2013-05-21 05:39:00,34.7,30.0,30.23,SSW,205,6.0,7.0,84,0.00,,,0.00,weatherlink.com 1.10,2013-05-21 11:39:00,
2013-05-21 05:54:00,34.9,30.0,30.23,SW,214,3.0,5.0,83,0.00,,,0.00,weatherlink.com 1.10,2013-05-21 11:54:00,
2013-05-21 06:09:00,34.4,29.0,30.23,SSW,213,0.0,1.0,82,0.00,,,0.00,weatherlink.com 1.10,2013-05-21 12:09:00,
2013-05-21 06:24:00,33.9,30.0,30.23,SSW,213,0.0,1.0,84,0.00,,,0.00,weatherlink.com 1.10,2013-05-21 12:24:00,
2013-05-21 06:39:00,33.8,30.0,30.23,SW,214,0.0,2.0,85,0.00,,,0.00,weatherlink.com 1.10,2013-05-21 12:39:00,
2013-05-21 06:54:00,34.4,31.0,30.24,SE,131,0.0,3.0,88,0.00,,,0.00,weatherlink.com 1.10,2013-05-21 12:54:00,
2013-05-21 07:09:00,35.9,32.0,30.24,East,98,0.0,0.0,84,0.00,,,0.00,weatherlink.com 1.10,2013-05-21 13:09:00,
2013-05-21 07:24:00,37.5,33.0,30.24,East,98,0.0,3.0,82,0.00,,,0.00,weatherlink.com 1.10,2013-05-21 13:24:00,
2013-05-21 07:39:00,39.3,33.0,30.25,East,98,1.0,3.0,78,0.00,,,0.00,weatherlink.com 1.10,2013-05-21 13:39:00,
2013-05-21 07:54:00,41.0,34.0,30.24,North,10,3.0,4.0,75,0.00,,,0.00,weatherlink.com 1.10,2013-05-21 13:54:00,
2013-05-21 08:09:00,43.0,34.0,30.24,ESE,109,2.0,7.0,71,0.00,,,0.00,weatherlink.com 1.10,2013-05-21 14:09:00,
2013-05-21 08:24:00,45.5,34.0,30.24,ESE,113,4.0,6.0,65,0.00,,,0.00,weatherlink.com 1.10,2013-05-21 14:24:00,
2013-05-21 08:39:00,47.3,34.0,30.24,East,88,2.0,8.0,61,0.00,,,0.00,weatherlink.com 1.10,2013-05-21 14:39:00,
2013-05-21 08:54:00,49.3,35.0,30.24,East,87,2.0,9.0,58,0.00,,,0.00,weatherlink.com 1.10,2013-05-21 14:54:00,
2013-05-21 09:10:00,50.7,35.0,30.24,East,92,3.0,7.0,55,0.00,,,0.00,weatherlink.com 1.10,2013-05-21 15:10:00,
2013-05-21 09:25:00,51.0,35.0,30.23,East,93,3.0,7.0,54,0.00,,,0.00,weatherlink.com 1.10,2013-05-21 15:25:00,
2013-05-21 09:40:00,52.3,34.0,30.23,ENE,67,8.0,9.0,50,0.00,,,0.00,weatherlink.com 1.10,2013-05-21 15:40:00,
2013-05-21 09:55:00,53.7,31.0,30.22,East,94,8.0,10.0,43,0.00,,,0.00,weatherlink.com 1.10,2013-05-21 15:55:00,
2013-05-21 10:10:00,55.1,29.0,30.22,ENE,66,8.0,9.0,37,0.00,,,0.00,weatherlink.com 1.10,2013-05-21 16:10:00,
2013-05-21 10:25:00,56.0,29.0,30.22,ENE,69,4.0,8.0,35,0.00,,,0.00,weatherlink.com 1.10,2013-05-21 16:25:00,
2013-05-21 10:40:00,57.8,29.0,30.22,ESE,103,3.0,10.0,33,0.00,,,0.00,weatherlink.com 1.10,2013-05-21 16:40:00,
2013-05-21 10:55:00,56.9,28.0,30.21,ESE,115,8.0,11.0,33,0.00,,,0.00,weatherlink.com 1.10,2013-05-21 16:55:00,
2013-05-21 11:10:00,56.4,27.0,30.21,NE,51,2.0,11.0,33,0.00,,,0.00,weatherlink.com 1.10,2013-05-21 17:10:00,
2013-05-21 11:25:00,59.4,29.0,30.21,ENE,78,9.0,11.0,31,0.00,,,0.00,weatherlink.com 1.10,2013-05-21 17:25:00,
2013-05-21 11:40:00,57.4,27.0,30.20,ENE,75,2.0,10.0,31,0.00,,,0.00,weatherlink.com 1.10,2013-05-21 17:40:00,
2013-05-21 11:55:00,59.9,28.0,30.20,SE,146,5.0,11.0,30,0.00,,,0.00,weatherlink.com 1.10,2013-05-21 17:55:00,
2013-05-21 12:10:00,60.2,29.0,30.20,NNW,336,6.0,13.0,31,0.00,,,0.00,weatherlink.com 1.10,2013-05-21 18:10:00,
2013-05-21 12:25:00,61.5,30.0,30.20,NNE,33,4.0,11.0,30,0.00,,,0.00,weatherlink.com 1.10,2013-05-21 18:25:00,
2013-05-21 12:40:00,60.7,29.0,30.19,NNE,17,4.0,12.0,30,0.00,,,0.00,weatherlink.com 1.10,2013-05-21 18:40:00,
2013-05-21 12:55:00,58.5,29.0,30.19,WNW,290,5.0,12.0,33,0.00,,,0.00,weatherlink.com 1.10,2013-05-21 18:55:00,
2013-05-21 13:10:00,60.7,30.0,30.19,NNW,342,3.0,11.0,31,0.00,,,0.00,weatherlink.com 1.10,2013-05-21 19:10:00,
2013-05-21 13:25:00,60.1,29.0,30.18,NE,42,7.0,9.0,31,0.00,,,0.00,weatherlink.com 1.10,2013-05-21 19:25:00,
2013-05-21 13:40:00,61.2,29.0,30.18,NNE,24,5.0,11.0,30,0.00,,,0.00,weatherlink.com 1.10,2013-05-21 19:40:00,
2013-05-21 13:55:00,59.5,31.0,30.18,NNW,339,7.0,11.0,34,0.00,,,0.00,weatherlink.com 1.10,2013-05-21 19:55:00,
2013-05-21 14:10:00,60.4,31.0,30.18,North,5,7.0,12.0,33,0.00,,,0.00,weatherlink.com 1.10,2013-05-21 20:10:00,
2013-05-21 14:25:00,58.9,31.0,30.17,NNW,334,3.0,10.0,35,0.00,,,0.00,weatherlink.com 1.10,2013-05-21 20:25:00,
2013-05-21 14:40:00,61.8,32.0,30.17,NNE,15,2.0,13.0,33,0.00,,,0.00,weatherlink.com 1.10,2013-05-21 20:40:00,
2013-05-21 14:55:00,61.4,32.0,30.17,WNW,289,3.0,12.0,33,0.00,,,0.00,weatherlink.com 1.10,2013-05-21 20:55:00,
2013-05-21 15:10:00,59.8,31.0,30.17,WNW,297,4.0,9.0,34,0.00,,,0.00,weatherlink.com 1.10,2013-05-21 21:10:00,
2013-05-21 15:25:00,59.5,30.0,30.16,NW,306,1.0,9.0,33,0.00,,,0.00,weatherlink.com 1.10,2013-05-21 21:25:00,
2013-05-21 15:40:00,60.7,32.0,30.16,NNW,333,5.0,11.0,34,0.00,,,0.00,weatherlink.com 1.10,2013-05-21 21:40:00,
2013-05-21 15:55:00,61.5,30.0,30.16,West,265,7.0,10.0,31,0.00,,,0.00,weatherlink.com 1.10,2013-05-21 21:55:00,
2013-05-21 16:10:00,64.9,25.0,30.15,WSW,244,9.0,16.0,22,0.00,,,0.00,weatherlink.com 1.10,2013-05-21 22:10:00,
2013-05-21 16:25:00,65.2,24.0,30.15,NW,315,10.0,15.0,21,0.00,,,0.00,weatherlink.com 1.10,2013-05-21 22:25:00,
2013-05-21 16:40:00,66.1,25.0,30.14,West,275,3.0,13.0,21,0.00,,,0.00,weatherlink.com 1.10,2013-05-21 22:40:00,
2013-05-21 16:55:00,66.4,23.0,30.14,West,275,7.0,21.0,19,0.00,,,0.00,weatherlink.com 1.10,2013-05-21 22:55:00,
2013-05-21 17:10:00,66.0,22.0,30.14,West,265,8.0,13.0,19,0.00,,,0.00,weatherlink.com 1.10,2013-05-21 23:10:00,
2013-05-21 17:25:00,65.4,30.0,30.14,NNW,341,3.0,9.0,27,0.00,,,0.00,weatherlink.com 1.10,2013-05-21 23:25:00,
2013-05-21 17:40:00,65.4,25.0,30.14,WNW,286,7.0,13.0,22,0.00,,,0.00,weatherlink.com 1.10,2013-05-21 23:40:00,
2013-05-21 17:56:00,63.9,26.0,30.13,West,277,1.0,7.0,24,0.00,,,0.00,weatherlink.com 1.10,2013-05-21 23:56:00,
2013-05-21 18:11:00,65.0,26.0,30.13,WSW,248,8.0,17.0,23,0.00,,,0.00,weatherlink.com 1.10,2013-05-22 00:11:00,
2013-05-21 18:26:00,64.2,25.0,30.13,West,270,2.0,10.0,23,0.00,,,0.00,weatherlink.com 1.10,2013-05-22 00:26:00,
2013-05-21 18:41:00,63.4,26.0,30.13,NNW,347,3.0,10.0,24,0.00,,,0.00,weatherlink.com 1.10,2013-05-22 00:41:00,
2013-05-21 18:56:00,62.0,32.0,30.13,WNW,303,2.0,4.0,32,0.00,,,0.00,weatherlink.com 1.10,2013-05-22 00:56:00,
2013-05-21 19:11:00,60.5,32.0,30.13,NW,318,1.0,8.0,34,0.00,,,0.00,weatherlink.com 1.10,2013-05-22 01:11:00,
2013-05-21 19:26:00,59.6,32.0,30.14,West,261,7.0,7.0,36,0.00,,,0.00,weatherlink.com 1.10,2013-05-22 01:26:00,
2013-05-21 19:41:00,58.9,32.0,30.14,NW,312,2.0,8.0,37,0.00,,,0.00,weatherlink.com 1.10,2013-05-22 01:41:00,
2013-05-21 19:56:00,57.7,33.0,30.13,NNW,329,2.0,5.0,40,0.00,,,0.00,weatherlink.com 1.10,2013-05-22 01:56:00,
2013-05-21 20:11:00,56.7,34.0,30.14,NW,320,1.0,3.0,42,0.00,,,0.00,weatherlink.com 1.10,2013-05-22 02:11:00,
2013-05-21 20:26:00,55.5,33.0,30.14,NW,319,2.0,4.0,42,0.00,,,0.00,weatherlink.com 1.10,2013-05-22 02:26:00,
2013-05-21 20:41:00,54.0,32.0,30.14,WNW,291,2.0,4.0,43,0.00,,,0.00,weatherlink.com 1.10,2013-05-22 02:41:00,
2013-05-21 20:56:00,51.9,32.0,30.14,West,279,4.0,5.0,46,0.00,,,0.00,weatherlink.com 1.10,2013-05-22 02:56:00,
2013-05-21 21:11:00,50.5,31.0,30.14,WSW,250,2.0,5.0,47,0.00,,,0.00,weatherlink.com 1.10,2013-05-22 03:11:00,
2013-05-21 21:26:00,49.6,30.0,30.14,WSW,250,2.0,4.0,48,0.00,,,0.00,weatherlink.com 1.10,2013-05-22 03:26:00,
2013-05-21 21:41:00,49.1,31.0,30.14,SW,222,2.0,5.0,50,0.00,,,0.00,weatherlink.com 1.10,2013-05-22 03:41:00,
2013-05-21 21:56:00,49.3,31.0,30.14,SW,216,5.0,6.0,49,0.00,,,0.00,weatherlink.com 1.10,2013-05-22 03:56:00,
2013-05-21 22:11:00,49.7,28.0,30.15,SW,214,5.0,7.0,43,0.00,,,0.00,weatherlink.com 1.10,2013-05-22 04:11:00,
2013-05-21 22:26:00,50.3,27.0,30.15,SSW,194,7.0,8.0,41,0.00,,,0.00,weatherlink.com 1.10,2013-05-22 04:26:00,
2013-05-21 22:41:00,50.6,27.0,30.15,SSW,192,6.0,7.0,40,0.00,,,0.00,weatherlink.com 1.10,2013-05-22 04:41:00,
2013-05-21 22:56:00,50.7,26.0,30.15,SSW,199,7.0,8.0,39,0.00,,,0.00,weatherlink.com 1.10,2013-05-22 04:56:00,
2013-05-21 23:11:00,50.2,27.0,30.15,SSW,194,7.0,10.0,40,0.00,,,0.00,weatherlink.com 1.10,2013-05-22 05:11:00,
2013-05-21 23:26:00,49.5,26.0,30.15,South,191,5.0,8.0,41,0.00,,,0.00,weatherlink.com 1.10,2013-05-22 05:26:00,
2013-05-21 23:42:00,48.8,27.0,30.14,South,182,5.0,8.0,43,0.00,,,0.00,weatherlink.com 1.10,2013-05-22 05:42:00,
2013-05-21 23:56:00,48.8,28.0,30.14,South,182,7.0,8.0,45,0.00,,,0.00,weatherlink.com 1.10,2013-05-22 05:56:00,